dinsdag , 22 januari 2019

Vliegtuig op Schiphol zakt door landingsgestel

Schiphol, 23 februari 2017 – Op Schiphol is een Dash8 Q400 van FlyBe, door het landingsgestel gezakt bij de landing. Op beelden is te zien dat het vliegtuig het moeilijk had door de stevige wind.

Volgens de luchthaven zijn alle passagiers uit het toestel en worden ze op dit moment naar de terminal gebracht. Er wordt nog gevlogen op Schiphol, maar op een andere baan. De hulpdiensten zijn ter plaatse.

Metar: EHAM 231425Z 23031G42KT 200V270 9999 FEW022 09/04 Q0986 TEMPO 7000 -RA BKN020


De redactie van Vliegen in Nederland kiest ervoor om bij (vlieg)ongevallen en incidenten alleen over de feiten te berichten. Zij onthoudt zich van speculaties omtrent de omstandigheden en/of mogelijke toedracht. Voor verdere informatie verwijst zij naar het/de rapport(en) van de betrokken autoriteit(en). Deze zal/zullen eventueel op een later tijdstip door Vliegen in Nederland worden gepubliceerd.